createdAt,value
2022-09-10T00:01:35.857Z,14.40
2022-09-10T00:04:08.128Z,15.90
2022-09-10T00:06:38.747Z,14.70
2022-09-10T00:09:07.961Z,17.90
2022-09-10T00:11:38.636Z,15.80
2022-09-10T00:14:09.407Z,16.50
2022-09-10T00:16:38.010Z,15.10
2022-09-10T00:19:07.273Z,13.80
2022-09-10T00:21:35.762Z,14.00
2022-09-10T00:24:05.297Z,14.20
2022-09-10T00:26:40.433Z,15.50
2022-09-10T00:31:40.156Z,16.40
2022-09-10T00:34:09.302Z,15.00
2022-09-10T00:36:40.953Z,18.40
2022-09-10T00:39:13.004Z,17.60
2022-09-10T00:41:43.290Z,18.30
2022-09-10T00:44:42.070Z,14.70
2022-09-10T00:47:19.506Z,17.10
2022-09-10T00:49:54.310Z,21.30
2022-09-10T00:52:22.590Z,17.50
2022-09-10T00:54:51.789Z,23.80
2022-09-10T00:57:23.586Z,19.80
2022-09-10T01:00:04.691Z,15.70
2022-09-10T01:02:32.607Z,17.90
2022-09-10T01:05:02.941Z,17.60
2022-09-10T01:07:33.149Z,19.20
2022-09-10T01:10:06.909Z,19.40
2022-09-10T01:13:00.010Z,20.50
2022-09-10T01:15:33.873Z,19.90
2022-09-10T01:18:03.519Z,20.00
2022-09-10T01:20:59.793Z,20.80
2022-09-10T01:23:46.114Z,20.20
2022-09-10T01:26:49.537Z,20.10
2022-09-10T01:29:33.210Z,22.00
2022-09-10T01:32:15.544Z,19.50
2022-09-10T01:34:56.454Z,18.00
2022-09-10T01:37:30.387Z,19.00
2022-09-10T01:40:01.948Z,21.10
2022-09-10T01:42:32.985Z,19.30
2022-09-10T01:45:01.331Z,27.00
2022-09-10T01:48:01.792Z,31.20
2022-09-10T01:51:15.162Z,27.60
2022-09-10T01:54:13.538Z,28.00
2022-09-10T01:56:57.478Z,27.00
2022-09-10T01:59:51.723Z,26.70
2022-09-10T02:02:26.085Z,30.50
2022-09-10T02:04:55.349Z,28.20
2022-09-10T02:07:27.026Z,21.30
2022-09-10T02:09:56.895Z,19.40
2022-09-10T02:12:25.586Z,19.50
2022-09-10T02:15:05.222Z,19.90
2022-09-10T02:17:49.406Z,21.30
2022-09-10T02:20:20.023Z,21.70
2022-09-10T02:22:58.762Z,21.90
2022-09-10T02:25:31.887Z,19.80
2022-09-10T02:27:59.731Z,22.10
2022-09-10T02:30:27.501Z,20.00
2022-09-10T02:32:55.811Z,20.20
2022-09-10T02:35:24.150Z,21.20
2022-09-10T02:37:53.529Z,19.10
2022-09-10T02:40:21.499Z,19.40
2022-09-10T02:42:49.525Z,20.20
2022-09-10T02:45:22.020Z,20.50
2022-09-10T02:47:50.119Z,21.00
2022-09-10T02:50:19.098Z,20.50
2022-09-10T02:52:47.601Z,22.40
2022-09-10T02:55:16.113Z,21.80
2022-09-10T02:57:44.294Z,20.00
2022-09-10T03:00:12.413Z,18.70
2022-09-10T03:02:40.526Z,18.90
2022-09-10T03:05:08.743Z,20.90
2022-09-10T03:07:36.935Z,20.20
2022-09-10T03:10:05.163Z,23.20
2022-09-10T03:12:33.883Z,21.90
2022-09-10T03:15:01.847Z,22.50
2022-09-10T03:17:30.092Z,22.50
2022-09-10T03:19:58.524Z,21.60
2022-09-10T03:22:26.335Z,22.20
2022-09-10T03:24:55.170Z,18.20
2022-09-10T03:27:26.376Z,20.20
2022-09-10T03:29:54.963Z,20.80
2022-09-10T03:32:25.047Z,22.30
2022-09-10T03:34:53.280Z,21.70
2022-09-10T03:37:24.208Z,20.10
2022-09-10T03:39:52.619Z,19.40
2022-09-10T03:42:20.653Z,20.60
2022-09-10T03:44:48.522Z,18.70
2022-09-10T03:47:16.690Z,18.30
2022-09-10T03:49:44.640Z,19.20
2022-09-10T03:52:14.153Z,19.50
2022-09-10T03:54:42.856Z,19.00
2022-09-10T03:57:11.221Z,19.70
2022-09-10T03:59:41.361Z,18.40
2022-09-10T04:02:10.623Z,20.00
2022-09-10T04:04:38.611Z,20.20
2022-09-10T04:07:07.239Z,19.30
2022-09-10T04:09:35.294Z,17.80
2022-09-10T04:12:04.101Z,17.20
2022-09-10T04:14:34.701Z,17.30
2022-09-10T04:17:03.723Z,16.90
2022-09-10T04:19:32.225Z,16.00
2022-09-10T04:21:59.985Z,13.90
2022-09-10T04:24:27.899Z,14.00
2022-09-10T04:26:56.806Z,14.10
2022-09-10T04:29:25.114Z,14.90
2022-09-10T04:31:53.071Z,13.90
2022-09-10T04:34:22.890Z,14.40
2022-09-10T04:36:53.603Z,14.80
2022-09-10T04:39:22.152Z,14.00
2022-09-10T04:41:50.707Z,13.30
2022-09-10T04:44:20.141Z,14.10
2022-09-10T04:46:48.548Z,13.90
2022-09-10T04:49:16.479Z,14.20
2022-09-10T04:51:44.356Z,16.00
2022-09-10T04:54:14.516Z,15.30
2022-09-10T04:56:43.714Z,16.10
2022-09-10T04:59:11.830Z,16.10
2022-09-10T05:01:40.081Z,13.10
2022-09-10T05:04:08.094Z,15.50
2022-09-10T05:06:38.173Z,16.30
2022-09-10T05:09:08.629Z,14.20
2022-09-10T05:11:37.364Z,15.20
2022-09-10T05:14:05.702Z,15.80
2022-09-10T05:16:33.677Z,14.30
2022-09-10T05:19:01.802Z,15.70
2022-09-10T05:21:33.645Z,15.30
2022-09-10T05:24:01.933Z,13.00
2022-09-10T05:26:30.250Z,16.60
2022-09-10T05:29:00.245Z,15.80
2022-09-10T05:31:28.668Z,13.80
2022-09-10T05:33:57.717Z,16.10
2022-09-10T05:36:25.538Z,15.80
2022-09-10T05:38:55.257Z,15.80
2022-09-10T05:41:24.020Z,12.90
2022-09-10T05:43:51.970Z,15.60
2022-09-10T05:46:20.250Z,15.90
2022-09-10T05:48:51.065Z,15.60
2022-09-10T05:51:20.170Z,16.10
2022-09-10T05:53:50.031Z,16.00
2022-09-10T05:56:22.754Z,14.10
2022-09-10T05:58:51.224Z,14.80
2022-09-10T06:01:19.445Z,14.60
2022-09-10T06:03:51.017Z,15.20
2022-09-10T06:06:19.734Z,14.60
2022-09-10T06:08:57.659Z,14.40
2022-09-10T06:11:54.480Z,12.90
2022-09-10T06:14:24.852Z,12.90
2022-09-10T06:16:55.327Z,13.40
2022-09-10T06:19:25.098Z,12.50
2022-09-10T06:21:52.959Z,13.10
2022-09-10T06:24:22.697Z,13.00
2022-09-10T06:26:52.552Z,13.00
2022-09-10T06:29:20.461Z,12.10
2022-09-10T06:31:48.988Z,13.20
2022-09-10T06:34:19.069Z,11.90
2022-09-10T06:36:48.150Z,12.30
2022-09-10T06:39:17.245Z,12.80
2022-09-10T06:41:55.394Z,14.30
2022-09-10T06:44:41.904Z,15.50
2022-09-10T06:48:06.864Z,15.50
2022-09-10T06:50:16.475Z,14.80
2022-09-10T06:52:48.918Z,13.80
2022-09-10T06:55:18.752Z,11.50
2022-09-10T06:57:47.972Z,14.20
2022-09-10T07:00:17.661Z,14.20
2022-09-10T07:02:50.828Z,13.40
2022-09-10T07:05:19.032Z,12.50
2022-09-10T07:07:47.321Z,12.60
2022-09-10T07:10:15.769Z,12.70
2022-09-10T07:12:44.952Z,11.80
2022-09-10T07:15:13.388Z,10.30
2022-09-10T07:17:41.251Z,9.50
2022-09-10T07:20:11.204Z,10.20
2022-09-10T07:22:44.790Z,10.40
2022-09-10T07:25:14.415Z,8.90
2022-09-10T07:27:54.311Z,9.20
2022-09-10T07:30:22.565Z,7.60
2022-09-10T07:32:51.711Z,7.60
2022-09-10T07:35:24.145Z,7.80
2022-09-10T07:37:52.089Z,8.20
2022-09-10T07:40:23.516Z,7.90
2022-09-10T07:42:52.849Z,8.20
2022-09-10T07:45:21.520Z,8.20
2022-09-10T07:47:50.119Z,8.50
2022-09-10T07:50:19.300Z,8.80
2022-09-10T07:52:52.433Z,8.80
2022-09-10T07:55:21.331Z,9.30
2022-09-10T07:57:49.774Z,8.90
2022-09-10T08:00:18.630Z,8.50
2022-09-10T08:02:51.801Z,9.90
2022-09-10T08:05:21.662Z,9.30
2022-09-10T08:07:53.909Z,10.90
2022-09-10T08:10:22.903Z,10.00
2022-09-10T08:12:51.327Z,10.00
2022-09-10T08:15:19.301Z,9.40
2022-09-10T08:17:48.228Z,10.10
2022-09-10T08:20:17.062Z,9.90
2022-09-10T08:22:45.215Z,9.10
2022-09-10T08:25:15.466Z,7.90
2022-09-10T08:27:43.765Z,9.30
2022-09-10T08:30:12.525Z,8.70
2022-09-10T08:32:42.940Z,9.70
2022-09-10T08:35:11.232Z,9.00
2022-09-10T08:37:39.159Z,10.30
2022-09-10T08:40:09.297Z,8.10
2022-09-10T08:42:43.451Z,8.00
2022-09-10T08:45:16.590Z,9.20
2022-09-10T08:48:13.963Z,9.30
2022-09-10T08:51:11.123Z,8.90
2022-09-10T08:53:54.723Z,9.10
2022-09-10T08:56:24.209Z,9.30
2022-09-10T08:58:58.775Z,9.30
2022-09-10T09:01:34.818Z,10.00
2022-09-10T09:04:13.264Z,9.70
2022-09-10T09:06:48.363Z,9.60
2022-09-10T09:09:16.666Z,10.40
2022-09-10T09:12:02.280Z,8.80
2022-09-10T09:14:36.873Z,9.10
2022-09-10T09:17:35.742Z,9.40
2022-09-10T09:20:31.216Z,9.80
2022-09-10T09:23:20.378Z,8.50
2022-09-10T09:25:51.014Z,8.50
2022-09-10T09:28:34.044Z,9.00
2022-09-10T09:31:10.254Z,9.90
2022-09-10T09:33:39.208Z,10.60
2022-09-10T09:36:13.452Z,9.60
2022-09-10T09:38:51.617Z,10.00
2022-09-10T09:41:31.416Z,9.90
2022-09-10T09:44:22.964Z,11.40
2022-09-10T09:46:50.902Z,9.70
2022-09-10T09:49:18.968Z,10.10
2022-09-10T09:51:48.981Z,9.70
2022-09-10T09:57:20.707Z,8.50
2022-09-10T09:59:50.588Z,8.70
2022-09-10T10:02:26.071Z,8.30
2022-09-10T10:05:04.496Z,9.90
2022-09-10T10:07:34.979Z,9.80
2022-09-10T10:10:07.653Z,9.10
2022-09-10T10:12:48.641Z,9.80
2022-09-10T10:15:44.351Z,8.90
2022-09-10T10:21:18.004Z,9.40
2022-09-10T10:23:47.226Z,8.40
2022-09-10T10:26:20.972Z,9.30
2022-09-10T10:28:49.963Z,9.40
2022-09-10T10:31:19.447Z,9.50
2022-09-10T10:34:15.276Z,9.50
2022-09-10T10:37:07.404Z,9.50
2022-09-10T10:40:01.381Z,8.70
2022-09-10T10:42:38.329Z,9.70
2022-09-10T10:45:10.100Z,9.40
2022-09-10T10:47:46.976Z,9.70
2022-09-10T10:50:18.460Z,8.90
2022-09-10T10:53:10.652Z,8.80
2022-09-10T10:55:56.713Z,9.00
2022-09-10T10:58:54.144Z,9.20
2022-09-10T11:01:30.299Z,9.30
2022-09-10T11:04:25.468Z,9.30
2022-09-10T11:07:18.441Z,8.10
2022-09-10T11:10:23.605Z,8.80
2022-09-10T11:13:07.102Z,8.50
2022-09-10T11:15:46.339Z,8.50
2022-09-10T11:18:33.511Z,9.10
2022-09-10T11:21:04.902Z,9.00
2022-09-10T11:23:34.232Z,9.00
2022-09-10T11:26:14.101Z,9.10
2022-09-10T11:29:03.887Z,10.00
2022-09-10T11:31:36.848Z,8.00
2022-09-10T11:34:28.796Z,8.10
2022-09-10T11:37:30.218Z,9.50
2022-09-10T11:40:03.305Z,8.40
2022-09-10T11:42:40.655Z,8.70
2022-09-10T11:45:40.427Z,8.30
2022-09-10T11:48:14.769Z,7.80
2022-09-10T11:50:58.406Z,7.80
2022-09-10T11:53:26.558Z,8.40
2022-09-10T11:56:07.985Z,7.40
2022-09-10T11:59:13.112Z,7.70
2022-09-10T12:02:22.419Z,5.40
2022-09-10T12:05:28.169Z,6.40
2022-09-10T12:08:08.232Z,4.80
2022-09-10T12:10:55.198Z,5.10
2022-09-10T12:13:23.216Z,4.40
2022-09-10T12:15:56.329Z,3.90
2022-09-10T12:18:28.863Z,2.80
2022-09-10T12:21:09.463Z,3.90
2022-09-10T12:23:42.541Z,3.30
2022-09-10T12:26:16.455Z,3.70
2022-09-10T12:28:53.577Z,4.00
2022-09-10T12:31:22.736Z,3.20
2022-09-10T12:33:51.239Z,2.50
2022-09-10T12:36:27.977Z,2.50
2022-09-10T12:39:25.822Z,2.40
2022-09-10T12:42:02.354Z,2.30
2022-09-10T12:44:36.407Z,2.30
2022-09-10T12:47:16.613Z,2.50
2022-09-10T12:49:46.901Z,2.30
2022-09-10T12:52:51.226Z,2.40
2022-09-10T12:55:43.683Z,2.20
2022-09-10T12:58:30.850Z,2.50
2022-09-10T13:01:17.159Z,2.40
2022-09-10T13:04:06.618Z,2.30
2022-09-10T13:06:44.913Z,2.40
2022-09-10T13:09:25.226Z,2.70
2022-09-10T13:11:57.850Z,2.80
2022-09-10T13:14:41.181Z,2.60
2022-09-10T13:17:37.809Z,2.40
2022-09-10T13:20:31.905Z,2.30
2022-09-10T13:23:08.805Z,2.00
2022-09-10T13:25:40.407Z,2.50
2022-09-10T13:28:37.556Z,2.10
2022-09-10T13:31:11.425Z,2.50
2022-09-10T13:33:52.351Z,2.80
2022-09-10T13:36:42.634Z,2.80
2022-09-10T13:39:25.339Z,3.00
2022-09-10T13:42:11.881Z,3.70
2022-09-10T13:45:14.962Z,2.90
2022-09-10T13:47:51.921Z,3.10
2022-09-10T13:50:25.827Z,3.10
2022-09-10T13:52:58.871Z,3.50
2022-09-10T13:58:08.412Z,2.90
2022-09-10T14:00:49.328Z,3.70
2022-09-10T14:03:26.040Z,3.40
2022-09-10T14:06:07.868Z,3.20
2022-09-10T14:08:39.520Z,2.90
2022-09-10T14:11:13.701Z,3.60
2022-09-10T14:13:56.055Z,3.60
2022-09-10T14:16:47.030Z,3.70
2022-09-10T14:19:22.509Z,4.10
2022-09-10T14:21:52.169Z,4.20
2022-09-10T14:24:47.199Z,4.10
2022-09-10T14:27:16.276Z,3.90
2022-09-10T14:29:44.645Z,3.90
2022-09-10T14:32:33.653Z,3.30
2022-09-10T14:35:38.330Z,3.80
2022-09-10T14:38:35.637Z,3.50
2022-09-10T14:41:11.190Z,3.90
2022-09-10T14:43:40.694Z,3.90
2022-09-10T14:46:12.375Z,3.80
2022-09-10T14:48:44.493Z,3.80
2022-09-10T14:51:20.104Z,4.00
2022-09-10T14:53:56.614Z,4.30
2022-09-10T14:56:29.019Z,3.70
2022-09-10T14:59:00.597Z,3.90
2022-09-10T15:01:29.416Z,3.90
2022-09-10T15:03:59.355Z,4.00
2022-09-10T15:06:27.695Z,3.60
2022-09-10T15:08:58.361Z,3.20
2022-09-10T15:11:28.174Z,3.20
2022-09-10T15:13:56.619Z,2.80
2022-09-10T15:16:24.810Z,3.00
2022-09-10T15:18:52.646Z,3.70
2022-09-10T15:21:20.617Z,2.70
2022-09-10T15:23:48.418Z,3.20
2022-09-10T15:26:16.434Z,3.00
2022-09-10T15:28:44.281Z,2.90
2022-09-10T15:31:12.356Z,2.90
2022-09-10T15:33:40.618Z,2.50
2022-09-10T15:36:08.768Z,2.40
2022-09-10T15:38:36.737Z,3.10
2022-09-10T15:41:13.608Z,2.90
2022-09-10T15:43:43.196Z,2.70
2022-09-10T15:46:12.920Z,3.50
2022-09-10T15:48:41.029Z,2.90
2022-09-10T15:51:17.301Z,3.00
2022-09-10T15:53:46.155Z,2.90
2022-09-10T15:56:15.903Z,2.70
2022-09-10T15:58:56.566Z,3.20
2022-09-10T16:01:28.982Z,4.40
2022-09-10T16:04:03.970Z,3.20
2022-09-10T16:06:39.485Z,3.60
2022-09-10T16:09:10.934Z,3.50
2022-09-10T16:11:40.985Z,3.00
2022-09-10T16:14:12.734Z,3.10
2022-09-10T16:16:44.169Z,3.40
2022-09-10T16:19:13.855Z,3.30
2022-09-10T16:21:41.822Z,3.30
2022-09-10T16:24:10.285Z,3.40
2022-09-10T16:26:41.322Z,3.70
2022-09-10T16:29:19.727Z,3.50
2022-09-10T16:31:48.195Z,3.60
2022-09-10T16:34:22.318Z,3.90
2022-09-10T16:36:51.566Z,4.00
2022-09-10T16:39:20.442Z,4.00
2022-09-10T16:41:51.129Z,3.70
2022-09-10T16:44:19.917Z,3.30
2022-09-10T16:46:48.301Z,3.50
2022-09-10T16:49:19.978Z,3.30
2022-09-10T16:51:50.062Z,3.80
2022-09-10T16:54:22.450Z,3.80
2022-09-10T16:56:51.560Z,4.10
2022-09-10T16:59:22.630Z,4.30
2022-09-10T17:01:52.749Z,3.60
2022-09-10T17:04:28.492Z,3.80
2022-09-10T17:06:58.714Z,4.00
2022-09-10T17:09:26.868Z,4.40
2022-09-10T17:11:55.571Z,3.70
2022-09-10T17:14:24.869Z,3.80
2022-09-10T17:16:53.623Z,4.80
2022-09-10T17:19:23.991Z,6.70
2022-09-10T17:21:55.711Z,6.20
2022-09-10T17:24:26.828Z,6.40
2022-09-10T17:26:55.681Z,6.30
2022-09-10T17:29:26.184Z,5.30
2022-09-10T17:31:55.590Z,4.70
2022-09-10T17:34:24.774Z,4.70
2022-09-10T17:36:52.836Z,4.90
2022-09-10T17:39:20.939Z,4.60
2022-09-10T17:41:49.077Z,4.90
2022-09-10T17:44:18.220Z,4.70
2022-09-10T17:46:46.624Z,4.80
2022-09-10T17:49:15.781Z,5.00
2022-09-10T17:51:44.642Z,5.30
2022-09-10T17:54:14.134Z,5.30
2022-09-10T17:56:43.689Z,5.00
2022-09-10T17:59:16.396Z,5.30
2022-09-10T18:01:45.717Z,4.80
2022-09-10T18:04:14.505Z,4.70
2022-09-10T18:06:44.009Z,5.10
2022-09-10T18:09:12.422Z,5.10
2022-09-10T18:11:41.480Z,4.10
2022-09-10T18:14:17.573Z,3.70
2022-09-10T18:16:46.617Z,3.70
2022-09-10T18:19:16.801Z,3.40
2022-09-10T18:21:47.213Z,3.40
2022-09-10T18:24:22.945Z,3.60
2022-09-10T18:26:54.282Z,3.70
2022-09-10T18:29:29.993Z,4.20
2022-09-10T18:32:02.946Z,3.80
2022-09-10T18:34:31.473Z,4.10
2022-09-10T18:37:01.515Z,4.00
2022-09-10T18:39:31.954Z,4.20
2022-09-10T18:42:01.283Z,3.40
2022-09-10T18:44:36.726Z,4.10
2022-09-10T18:47:27.993Z,3.70
2022-09-10T18:49:59.148Z,3.80
2022-09-10T18:52:29.317Z,4.10
2022-09-10T18:54:57.249Z,3.90
2022-09-10T18:57:25.054Z,3.80
2022-09-10T18:59:55.147Z,3.90
2022-09-10T19:02:23.152Z,4.00
2022-09-10T19:05:10.304Z,4.20
2022-09-10T19:07:39.062Z,3.70
2022-09-10T19:10:08.516Z,3.20
2022-09-10T19:12:36.395Z,2.80
2022-09-10T19:15:04.486Z,3.10
2022-09-10T19:17:32.302Z,3.40
2022-09-10T19:20:00.130Z,3.00
2022-09-10T19:22:28.048Z,2.70
2022-09-10T19:24:56.781Z,2.70
2022-09-10T19:27:24.666Z,3.10
2022-09-10T19:29:53.448Z,2.50
2022-09-10T19:32:22.227Z,2.40
2022-09-10T19:34:51.345Z,2.30
2022-09-10T19:37:19.940Z,2.20
2022-09-10T19:39:48.330Z,2.60
2022-09-10T19:42:16.560Z,3.00
2022-09-10T19:44:44.569Z,2.30
2022-09-10T19:47:12.405Z,2.40
2022-09-10T19:49:40.279Z,2.30
2022-09-10T19:52:08.154Z,2.20
2022-09-10T19:54:36.084Z,2.20
2022-09-10T19:57:04.129Z,2.10
2022-09-10T19:59:32.113Z,1.70
2022-09-10T20:02:00.158Z,1.60
2022-09-10T20:04:28.806Z,1.80
2022-09-10T20:06:56.891Z,1.40
2022-09-10T20:09:25.115Z,1.80
2022-09-10T20:11:53.710Z,1.70
2022-09-10T20:14:21.562Z,1.90
2022-09-10T20:16:49.753Z,1.50
2022-09-10T20:19:18.639Z,1.70
2022-09-10T20:21:47.882Z,1.90
2022-09-10T20:24:16.441Z,2.00
2022-09-10T20:26:46.842Z,1.90
2022-09-10T20:29:18.108Z,1.80
2022-09-10T20:31:47.784Z,1.60
2022-09-10T20:34:21.269Z,1.90
2022-09-10T20:36:51.414Z,2.10
2022-09-10T20:39:22.430Z,2.00
2022-09-10T20:41:50.276Z,1.60
2022-09-10T20:44:20.924Z,1.80
2022-09-10T20:46:48.832Z,1.90
2022-09-10T20:49:17.189Z,1.70
2022-09-10T20:51:45.799Z,1.90
2022-09-10T20:54:16.783Z,1.70
2022-09-10T20:56:46.083Z,1.70
2022-09-10T20:59:19.586Z,1.80
2022-09-10T21:01:50.988Z,2.10
2022-09-10T21:04:19.670Z,1.70
2022-09-10T21:06:47.752Z,2.00
2022-09-10T21:09:15.754Z,1.90
2022-09-10T21:11:43.519Z,1.90
2022-09-10T21:14:12.416Z,2.20
2022-09-10T21:16:42.431Z,2.00
2022-09-10T21:19:13.357Z,1.60
2022-09-10T21:21:42.776Z,1.60
2022-09-10T21:24:16.245Z,1.70
2022-09-10T21:26:45.015Z,1.70
2022-09-10T21:29:15.940Z,1.90
2022-09-10T21:31:45.453Z,1.60
2022-09-10T21:34:14.986Z,1.80
2022-09-10T21:36:43.988Z,1.90
2022-09-10T21:39:17.503Z,1.90
2022-09-10T21:41:48.222Z,2.30
2022-09-10T21:44:20.009Z,2.00
2022-09-10T21:46:49.011Z,2.20
2022-09-10T21:49:17.436Z,1.90
2022-09-10T21:51:45.555Z,1.90
2022-09-10T21:54:20.576Z,1.90
2022-09-10T21:56:49.670Z,1.90
2022-09-10T21:59:19.420Z,1.80
2022-09-10T22:01:49.095Z,1.90
2022-09-10T22:04:22.066Z,2.00
2022-09-10T22:06:52.050Z,1.90
2022-09-10T22:09:21.308Z,1.90
2022-09-10T22:11:51.884Z,2.00
2022-09-10T22:14:22.241Z,2.20
2022-09-10T22:16:50.898Z,1.70
2022-09-10T22:19:22.502Z,2.20
2022-09-10T22:21:51.253Z,2.30
2022-09-10T22:24:19.318Z,1.90
2022-09-10T22:26:47.578Z,2.10
2022-09-10T22:29:19.084Z,2.20
2022-09-10T22:31:48.039Z,1.90
2022-09-10T22:34:17.614Z,2.60
2022-09-10T22:36:46.722Z,2.60
2022-09-10T22:39:18.500Z,2.40
2022-09-10T22:41:48.191Z,2.60
2022-09-10T22:44:17.942Z,2.70
2022-09-10T22:46:46.278Z,2.60
2022-09-10T22:49:16.268Z,2.20
2022-09-10T22:51:44.718Z,2.50
2022-09-10T22:54:12.642Z,1.80
2022-09-10T22:56:40.516Z,2.10
2022-09-10T22:59:15.223Z,2.10
2022-09-10T23:01:47.775Z,1.90
2022-09-10T23:04:16.294Z,2.00
2022-09-10T23:06:44.646Z,1.90
2022-09-10T23:09:15.337Z,2.20
2022-09-10T23:11:45.308Z,2.30
2022-09-10T23:14:20.045Z,2.00
2022-09-10T23:16:50.038Z,2.10
2022-09-10T23:19:21.919Z,2.00
2022-09-10T23:21:54.927Z,1.90
2022-09-10T23:24:25.061Z,1.80
2022-09-10T23:26:53.986Z,2.10
2022-09-10T23:29:23.522Z,1.70
2022-09-10T23:31:53.511Z,1.90
2022-09-10T23:34:22.468Z,1.90
2022-09-10T23:36:52.025Z,1.90
2022-09-10T23:39:24.637Z,2.00
2022-09-10T23:41:55.643Z,2.00
2022-09-10T23:44:23.564Z,1.80
2022-09-10T23:46:52.054Z,2.00
2022-09-10T23:49:19.971Z,1.80
2022-09-10T23:51:49.118Z,1.80
2022-09-10T23:54:17.311Z,1.80
2022-09-10T23:56:45.448Z,1.60
2022-09-10T23:59:13.319Z,2.00
